Time;durP1;ratioP1;P1;durP2;ratioP2;P2;SDS_P1;SDS_P2;PMS_P1;PMS_P2;Temp;Humidity;BMP_temperature;BMP_pressure;BME280_temperature;BME280_humidity;BME280_pressure;Samples;Min_cycle;Max_cycle;Signal;HPM_P1;HPM_P2
2022/03/12 00:00:50;;;;;;;15.27;8.70;;;;;;;3.14;35.29;102256.44;5003872;28;20238;-54
2022/03/12 00:03:16;;;;;;;11.43;8.30;;;;;;;3.28;36.97;102265.84;5005086;28;20259;-53
2022/03/12 00:05:52;;;;;;;16.87;8.37;;;;;;;3.11;35.50;102264.03;5004969;28;20227;-55
2022/03/12 00:08:18;;;;;;;12.03;8.80;;;;;;;3.33;36.63;102258.28;5006329;28;20248;-53
2022/03/12 00:10:46;;;;;;;20.13;8.90;;;;;;;3.04;35.62;102256.75;5007920;28;20244;-56
2022/03/12 00:13:12;;;;;;;14.47;9.83;;;;;;;2.89;36.11;102248.13;5014860;28;20240;-55
2022/03/12 00:15:39;;;;;;;18.97;10.10;;;;;;;2.82;37.28;102246.91;5013931;28;20232;-51
2022/03/12 00:18:06;;;;;;;14.27;9.07;;;;;;;3.11;37.26;102253.66;5009610;28;20252;-53
2022/03/12 00:20:33;;;;;;;14.60;9.37;;;;;;;3.19;35.97;102249.75;5004204;28;21243;-54
2022/03/12 00:23:01;;;;;;;16.23;9.90;;;;;;;3.00;35.71;102247.00;5005613;28;20256;-57
2022/03/12 00:25:27;;;;;;;13.37;9.63;;;;;;;3.01;35.80;102248.78;5006063;28;20616;-53
2022/03/12 00:27:54;;;;;;;15.70;9.60;;;;;;;3.07;35.34;102238.75;4996097;28;20829;-53
2022/03/12 00:30:24;;;;;;;15.60;9.50;;;;;;;2.92;36.64;102244.00;5007328;28;20294;-54
2022/03/12 00:32:53;;;;;;;14.17;8.80;;;;;;;3.03;37.16;102247.19;4998018;28;20850;-53
2022/03/12 00:35:20;;;;;;;15.93;9.67;;;;;;;2.53;35.66;102248.78;5007477;28;20236;-51
2022/03/12 00:37:48;;;;;;;15.87;10.53;;;;;;;2.67;36.37;102240.84;5005614;28;20244;-55
2022/03/12 00:40:20;;;;;;;12.90;9.27;;;;;;;2.89;36.60;102248.13;5006164;28;20260;-54
2022/03/12 00:42:46;;;;;;;12.60;9.80;;;;;;;2.53;36.84;102247.91;5004872;28;20283;-55
2022/03/12 00:45:13;;;;;;;13.87;9.67;;;;;;;2.73;37.05;102252.47;5008445;28;20847;-54
2022/03/12 00:47:39;;;;;;;15.63;9.60;;;;;;;2.77;37.52;102254.44;5006426;28;20236;-54
2022/03/12 00:50:07;;;;;;;16.57;9.33;;;;;;;2.56;36.15;102250.63;5007654;28;21348;-54
2022/03/12 00:52:33;;;;;;;14.97;9.17;;;;;;;2.76;37.45;102252.63;5005750;28;20287;-54
2022/03/12 00:54:59;;;;;;;15.27;9.83;;;;;;;2.57;36.60;102249.84;5005226;28;20247;-55
2022/03/12 00:57:27;;;;;;;17.67;9.63;;;;;;;2.76;38.13;102252.63;5004881;28;20236;-55
2022/03/12 00:59:53;;;;;;;16.90;9.80;;;;;;;2.63;37.66;102244.97;5007289;28;20308;-54
2022/03/12 01:02:20;;;;;;;16.90;8.87;;;;;;;2.60;38.11;102239.66;5003036;28;20702;-54
2022/03/12 01:04:46;;;;;;;16.80;10.33;;;;;;;2.65;37.96;102233.00;5007705;28;20232;-53
2022/03/12 01:07:13;;;;;;;17.97;9.87;;;;;;;2.56;37.18;102243.78;5004960;28;20315;-53
2022/03/12 01:09:40;;;;;;;14.10;10.63;;;;;;;2.38;36.67;102237.53;5011372;28;20323;-54
2022/03/12 01:12:07;;;;;;;15.47;9.67;;;;;;;2.34;35.94;102236.47;5003717;28;20294;-54
2022/03/12 01:14:38;;;;;;;18.43;9.53;;;;;;;2.60;36.85;102229.28;5008816;28;20232;-54
2022/03/12 01:17:05;;;;;;;15.53;9.63;;;;;;;2.30;37.53;102237.09;5007154;28;20233;-52
2022/03/12 01:19:34;;;;;;;16.00;9.40;;;;;;;2.32;37.70;102232.91;4999922;28;20339;-54
2022/03/12 01:22:01;;;;;;;15.37;9.80;;;;;;;2.56;37.42;102240.25;4998437;28;20227;-54
2022/03/12 01:24:28;;;;;;;18.00;10.73;;;;;;;2.47;37.65;102232.00;5006479;28;20298;-55
2022/03/12 01:26:55;;;;;;;15.77;9.83;;;;;;;2.42;37.76;102238.59;5004649;28;20232;-53
2022/03/12 01:29:21;;;;;;;17.23;9.20;;;;;;;2.54;38.28;102234.13;5006078;28;20261;-54
2022/03/12 01:31:48;;;;;;;18.47;10.10;;;;;;;2.48;37.17;102233.78;5005278;28;20263;-54
2022/03/12 01:34:15;;;;;;;17.00;9.73;;;;;;;2.65;38.64;102229.53;5006406;28;20657;-53
2022/03/12 01:36:41;;;;;;;14.03;9.53;;;;;;;2.55;39.09;102229.00;5007616;28;20236;-54
2022/03/12 01:39:07;;;;;;;17.30;10.07;;;;;;;2.39;38.00;102235.03;5006115;28;20679;-55
2022/03/12 01:41:40;;;;;;;14.27;9.37;;;;;;;2.64;38.44;102233.81;5007129;28;20780;-54
2022/03/12 01:44:06;;;;;;;13.20;9.87;;;;;;;2.55;37.54;102226.41;5004813;28;20266;-54
2022/03/12 01:46:35;;;;;;;19.93;10.23;;;;;;;2.67;38.63;102221.03;5006719;28;20235;-55
2022/03/12 01:49:05;;;;;;;13.63;9.13;;;;;;;2.65;38.46;102222.63;5003345;28;20274;-53
2022/03/12 01:51:31;;;;;;;13.00;9.23;;;;;;;2.85;39.87;102224.63;5005871;28;20232;-53
2022/03/12 01:53:58;;;;;;;15.60;10.33;;;;;;;2.83;38.62;102228.81;4996001;28;20268;-54
2022/03/12 01:56:27;;;;;;;14.70;10.67;;;;;;;2.51;38.16;102231.34;5005625;28;20324;-55
2022/03/12 01:58:54;;;;;;;15.93;10.80;;;;;;;1.97;38.27;102230.91;5003921;28;20224;-54
2022/03/12 02:01:21;;;;;;;17.10;9.90;;;;;;;2.16;40.52;102232.84;5005403;28;20330;-54
2022/03/12 02:03:48;;;;;;;17.23;9.87;;;;;;;2.36;39.96;102228.81;5005371;28;20256;-54
2022/03/12 02:06:21;;;;;;;17.60;9.63;;;;;;;2.29;39.71;102221.50;5005533;28;20319;-55
2022/03/12 02:08:48;;;;;;;12.17;9.60;;;;;;;2.07;40.49;102221.94;5004110;28;20272;-55
2022/03/12 02:11:19;;;;;;;17.30;9.83;;;;;;;2.02;38.92;102226.88;5005846;28;20332;-54
2022/03/12 02:13:46;;;;;;;16.43;10.10;;;;;;;2.24;40.94;102221.19;5004922;28;20232;-53
2022/03/12 02:16:13;;;;;;;14.80;9.60;;;;;;;2.04;38.97;102219.19;5004144;28;20260;-55
2022/03/12 02:18:40;;;;;;;15.03;9.33;;;;;;;2.00;39.87;102223.31;5004643;28;20244;-54
2022/03/12 02:21:06;;;;;;;14.93;10.53;;;;;;;1.91;38.75;102218.47;5005381;28;20759;-54
2022/03/12 02:23:46;;;;;;;15.93;9.53;;;;;;;2.18;39.42;102218.28;5001304;28;20961;-54
2022/03/12 02:26:12;;;;;;;13.43;9.20;;;;;;;2.32;39.03;102213.88;5004893;28;20320;-54
2022/03/12 02:28:39;;;;;;;28.00;10.10;;;;;;;1.94;39.28;102210.00;5010092;28;20240;-53
2022/03/12 02:31:05;;;;;;;14.80;9.70;;;;;;;1.79;39.07;102211.69;5011996;28;20232;-54
2022/03/12 02:33:32;;;;;;;13.23;9.00;;;;;;;1.89;39.36;102207.13;5004455;28;20247;-52
2022/03/12 02:35:59;;;;;;;14.37;9.30;;;;;;;2.12;40.14;102202.38;5011218;28;20236;-54
2022/03/12 02:38:27;;;;;;;14.30;9.53;;;;;;;1.87;40.98;102203.56;5007668;28;20289;-53
2022/03/12 02:40:55;;;;;;;15.50;9.77;;;;;;;1.66;39.83;102199.75;5015263;28;20299;-52
2022/03/12 02:43:27;;;;;;;15.17;9.07;;;;;;;1.83;40.12;102195.56;5010723;28;20287;-53
2022/03/12 02:45:55;;;;;;;15.30;10.53;;;;;;;1.94;39.68;102202.22;5009158;28;20255;-54
2022/03/12 02:48:25;;;;;;;15.37;10.53;;;;;;;1.97;38.79;102196.34;5004841;28;20662;-53
2022/03/12 02:50:52;;;;;;;16.47;9.47;;;;;;;1.99;39.33;102195.59;5005860;28;20263;-53
2022/03/12 02:53:18;;;;;;;18.03;11.07;;;;;;;1.88;39.85;102196.69;5003643;28;20306;-52
2022/03/12 02:55:45;;;;;;;16.97;10.17;;;;;;;1.87;41.42;102198.41;5008592;28;20819;-54
2022/03/12 02:58:16;;;;;;;12.73;10.20;;;;;;;1.89;40.39;102201.06;5003738;28;20232;-55
2022/03/12 03:00:42;;;;;;;18.27;10.93;;;;;;;1.75;40.12;102199.38;5008268;28;20236;-55
2022/03/12 03:03:09;;;;;;;15.80;9.97;;;;;;;1.56;40.09;102202.59;5005868;28;20759;-54
2022/03/12 03:05:46;;;;;;;15.53;10.27;;;;;;;1.94;40.19;102202.22;5005756;28;20266;-53
2022/03/12 03:08:17;;;;;;;19.20;11.13;;;;;;;1.80;39.65;102198.84;5001818;28;20239;-54
2022/03/12 03:10:45;;;;;;;16.07;10.23;;;;;;;1.86;40.43;102190.53;5003826;28;20286;-54
2022/03/12 03:13:36;;;;;;;16.13;10.10;;;;;;;1.79;40.78;102185.78;5004851;28;20235;-54
2022/03/12 03:16:03;;;;;;;16.27;9.70;;;;;;;1.91;40.13;102200.34;4995709;28;20232;-53
2022/03/12 03:18:31;;;;;;;16.63;11.03;;;;;;;1.99;40.43;102202.50;5004828;28;20303;-54
2022/03/12 03:20:59;;;;;;;16.27;10.37;;;;;;;1.86;38.61;102193.09;5005884;28;20231;-54
2022/03/12 03:23:29;;;;;;;18.70;11.00;;;;;;;1.95;40.77;102192.75;5005974;28;20253;-53
2022/03/12 03:25:55;;;;;;;16.20;10.93;;;;;;;1.77;40.97;102198.66;5007535;28;20224;-54
2022/03/12 03:28:22;;;;;;;18.23;10.40;;;;;;;1.53;39.67;102205.88;5006830;28;20228;-54
2022/03/12 03:30:49;;;;;;;16.93;9.93;;;;;;;1.75;39.34;102195.06;5006630;28;20327;-54
2022/03/12 03:33:18;;;;;;;13.87;10.20;;;;;;;1.71;40.84;102197.41;5006580;28;20260;-54
2022/03/12 03:35:45;;;;;;;17.93;9.90;;;;;;;1.53;41.13;102205.00;5007552;28;20294;-53
2022/03/12 03:38:13;;;;;;;17.20;10.87;;;;;;;1.72;40.22;102205.28;5004813;28;20250;-54
2022/03/12 03:40:40;;;;;;;17.57;10.30;;;;;;;1.87;40.04;102195.81;5006857;28;20259;-54
2022/03/12 03:43:09;;;;;;;15.17;10.47;;;;;;;1.81;38.54;102200.63;5005539;28;20286;-54
2022/03/12 03:45:35;;;;;;;18.63;10.77;;;;;;;1.76;39.38;102191.72;5007057;28;20331;-53
2022/03/12 03:48:03;;;;;;;20.00;10.27;;;;;;;1.82;40.93;102186.84;5007569;28;20236;-54
2022/03/12 03:50:30;;;;;;;17.80;9.90;;;;;;;1.66;39.63;102199.75;4998807;28;20287;-55
2022/03/12 03:53:02;;;;;;;18.47;9.40;;;;;;;1.59;39.68;102198.47;5009567;28;20255;-57
2022/03/12 03:55:28;;;;;;;16.20;10.50;;;;;;;1.65;38.74;102200.53;5005615;28;20673;-53
2022/03/12 03:57:57;;;;;;;17.27;9.93;;;;;;;1.94;40.18;102196.16;5010987;28;20286;-53
2022/03/12 04:00:24;;;;;;;15.03;10.17;;;;;;;1.71;39.64;102193.13;5004946;28;20713;-54
2022/03/12 04:02:51;;;;;;;13.80;10.13;;;;;;;1.99;41.16;102185.25;4999599;28;20615;-54
2022/03/12 04:05:19;;;;;;;17.13;11.07;;;;;;;1.60;39.81;102196.78;5006239;28;20332;-54
2022/03/12 04:07:45;;;;;;;18.83;10.23;;;;;;;1.69;39.81;102193.84;5008809;28;20297;-54
2022/03/12 04:10:11;;;;;;;16.23;9.53;;;;;;;1.61;41.76;102191.69;5002353;28;20247;-54
2022/03/12 04:12:38;;;;;;;16.93;10.60;;;;;;;1.89;41.33;102196.75;5007912;28;20232;-56
2022/03/12 04:15:05;;;;;;;14.50;10.30;;;;;;;1.79;39.23;102191.88;5008331;28;20241;-55
2022/03/12 04:17:32;;;;;;;20.73;10.40;;;;;;;1.78;39.58;102186.59;5008067;28;20244;-56
2022/03/12 04:19:58;;;;;;;15.33;10.50;;;;;;;1.66;40.52;102189.38;5004067;28;20240;-55
2022/03/12 04:22:26;;;;;;;15.77;10.43;;;;;;;1.23;41.02;102197.19;5008627;28;20246;-55
2022/03/12 04:24:53;;;;;;;15.53;10.83;;;;;;;1.59;40.23;102198.47;5002473;28;20279;-53
2022/03/12 04:27:22;;;;;;;15.13;10.33;;;;;;;1.85;40.32;102187.03;5008683;28;20236;-55
2022/03/12 04:29:48;;;;;;;17.57;10.77;;;;;;;1.67;40.74;102192.03;5006006;28;20729;-55
2022/03/12 04:32:16;;;;;;;24.57;10.53;;;;;;;1.45;40.29;102195.88;5008855;28;20365;-56
2022/03/12 04:34:42;;;;;;;16.63;10.57;;;;;;;1.47;40.24;102191.69;5011137;28;20717;-55
2022/03/12 04:37:09;;;;;;;15.40;10.33;;;;;;;1.43;41.71;102201.84;5011114;28;20865;-55
2022/03/12 04:39:36;;;;;;;18.33;10.07;;;;;;;1.48;41.95;102196.97;5009596;28;20330;-55
2022/03/12 04:42:03;;;;;;;16.23;10.27;;;;;;;1.48;39.60;102203.84;5012089;28;20236;-55
2022/03/12 04:44:29;;;;;;;17.20;10.93;;;;;;;1.54;40.33;102201.59;5007714;28;20678;-54
2022/03/12 04:46:56;;;;;;;17.50;11.27;;;;;;;1.43;42.32;102203.53;5006661;28;20761;-54
2022/03/12 04:49:22;;;;;;;18.57;10.10;;;;;;;1.30;40.65;102201.94;5006253;28;20236;-55
2022/03/12 04:51:49;;;;;;;17.03;10.63;;;;;;;1.39;40.63;102202.47;5008731;28;20307;-55
2022/03/12 04:54:15;;;;;;;18.70;10.90;;;;;;;1.26;41.55;102202.53;5005938;28;20239;-55
2022/03/12 04:56:44;;;;;;;21.23;11.10;;;;;;;1.27;41.29;102199.16;4998689;28;20280;-55
2022/03/12 04:59:13;;;;;;;18.73;10.80;;;;;;;0.88;40.92;102205.41;5006262;28;20243;-54
2022/03/12 05:01:39;;;;;;;17.43;10.63;;;;;;;1.33;41.79;102201.19;5007070;28;20249;-54
2022/03/12 05:04:05;;;;;;;16.60;11.07;;;;;;;1.25;40.47;102205.94;5005484;28;20261;-54
2022/03/12 05:06:32;;;;;;;18.50;9.50;;;;;;;1.41;40.84;102208.63;5002434;28;20291;-54
2022/03/12 05:08:58;;;;;;;15.87;10.73;;;;;;;1.24;41.51;102196.38;5012865;28;20244;-53
2022/03/12 05:11:24;;;;;;;15.03;10.70;;;;;;;1.21;41.12;102209.13;5004851;28;20286;-53
2022/03/12 05:13:53;;;;;;;15.63;10.07;;;;;;;1.35;41.16;102203.09;5001246;28;20839;-53
2022/03/12 05:16:19;;;;;;;18.37;10.40;;;;;;;1.41;39.56;102200.88;5000440;28;20246;-54
2022/03/12 05:18:46;;;;;;;20.57;10.97;;;;;;;1.53;40.81;102198.13;5004917;28;20240;-54
2022/03/12 05:21:12;;;;;;;16.97;9.80;;;;;;;1.54;39.22;102205.06;5002463;28;20240;-54
2022/03/12 05:23:38;;;;;;;16.77;10.37;;;;;;;1.39;41.35;102205.06;5007109;28;20256;-53
2022/03/12 05:26:05;;;;;;;15.67;9.73;;;;;;;1.16;40.28;102207.97;5006094;28;20259;-54
2022/03/12 05:28:32;;;;;;;17.47;11.70;;;;;;;0.97;39.89;102215.38;5006481;28;20616;-54
2022/03/12 05:31:04;;;;;;;19.63;10.60;;;;;;;0.97;39.54;102212.81;5006092;28;20239;-54
2022/03/12 05:33:30;;;;;;;15.73;9.37;;;;;;;1.16;40.22;102220.91;5006157;28;20714;-55
2022/03/12 05:35:57;;;;;;;14.90;10.23;;;;;;;1.13;40.23;102219.03;5006313;28;20307;-54
2022/03/12 05:38:24;;;;;;;20.37;11.07;;;;;;;1.38;39.38;102218.81;5005645;28;20595;-54
2022/03/12 05:40:50;;;;;;;16.33;11.10;;;;;;;1.61;40.48;102221.84;5005333;28;20256;-54
2022/03/12 05:43:17;;;;;;;23.47;12.37;;;;;;;1.27;40.22;102224.16;5007733;28;20363;-54
2022/03/12 05:45:45;;;;;;;19.67;11.77;;;;;;;1.59;39.77;102228.66;5005837;28;20713;-54
2022/03/12 05:48:14;;;;;;;21.83;11.10;;;;;;;1.32;40.39;102228.78;5006018;28;20481;-54
2022/03/12 05:50:42;;;;;;;17.27;10.63;;;;;;;1.36;40.07;102227.28;5005602;28;20897;-55
2022/03/12 05:53:09;;;;;;;18.50;11.27;;;;;;;1.18;41.43;102219.28;5005143;28;20376;-54
2022/03/12 05:55:38;;;;;;;15.70;9.93;;;;;;;1.13;40.71;102228.47;5000938;28;20289;-53
2022/03/12 05:58:05;;;;;;;14.93;9.57;;;;;;;1.23;41.38;102230.81;5005560;28;20737;-55
2022/03/12 06:00:32;;;;;;;18.90;10.57;;;;;;;1.22;41.45;102239.38;5000672;28;20271;-55
2022/03/12 06:02:59;;;;;;;17.47;10.77;;;;;;;1.30;40.56;102240.75;5005715;28;20240;-53
2022/03/12 06:05:26;;;;;;;15.73;10.57;;;;;;;1.29;39.99;102238.94;5005226;28;20267;-54
2022/03/12 06:07:54;;;;;;;17.23;11.03;;;;;;;1.25;40.75;102236.97;5005551;28;20252;-54
2022/03/12 06:10:23;;;;;;;19.90;11.20;;;;;;;1.06;40.63;102236.66;5003777;28;20246;-54
2022/03/12 06:12:51;;;;;;;17.87;10.73;;;;;;;1.14;41.52;102238.91;5005880;28;20236;-55
2022/03/12 06:15:19;;;;;;;15.73;10.20;;;;;;;1.40;40.27;102243.09;5005713;28;20322;-54
2022/03/12 06:17:46;;;;;;;22.67;9.90;;;;;;;1.42;41.18;102233.72;5005294;28;20261;-54
2022/03/12 06:20:14;;;;;;;19.43;10.90;;;;;;;1.34;40.28;102236.66;5003524;28;20386;-55
2022/03/12 06:22:43;;;;;;;23.83;11.67;;;;;;;1.22;40.36;102239.38;5002519;28;20315;-55
2022/03/12 06:25:12;;;;;;;17.90;10.47;;;;;;;1.23;40.80;102238.59;5003043;28;20279;-53
2022/03/12 06:27:39;;;;;;;16.27;10.40;;;;;;;1.37;41.02;102242.91;5001337;28;20322;-54
2022/03/12 06:30:07;;;;;;;16.53;11.07;;;;;;;1.21;40.09;102242.75;5004402;28;20247;-54
2022/03/12 06:32:34;;;;;;;19.50;11.33;;;;;;;1.37;40.51;102236.81;5005070;28;20331;-53
2022/03/12 06:35:00;;;;;;;21.10;11.27;;;;;;;1.26;40.59;102240.44;5004760;28;20264;-55
2022/03/12 06:37:27;;;;;;;20.50;11.83;;;;;;;1.46;40.52;102244.25;5004935;28;20241;-54
2022/03/12 06:39:55;;;;;;;19.53;11.10;;;;;;;1.46;41.22;102241.66;5005201;28;20236;-54
2022/03/12 06:42:32;;;;;;;17.70;9.73;;;;;;;1.48;40.17;102245.25;5005246;28;20255;-54
2022/03/12 06:44:58;;;;;;;19.23;10.43;;;;;;;1.46;39.91;102244.25;5000330;28;20238;-55
2022/03/12 06:47:29;;;;;;;17.73;11.73;;;;;;;1.53;40.05;102236.94;5004417;28;20238;-54
2022/03/12 06:49:56;;;;;;;17.07;11.27;;;;;;;1.29;40.11;102243.22;5004279;28;20759;-54
2022/03/12 06:52:23;;;;;;;17.50;9.63;;;;;;;1.23;40.57;102238.59;5004958;28;20244;-54
2022/03/12 06:54:51;;;;;;;16.97;11.03;;;;;;;1.56;40.56;102234.53;4994510;28;20233;-54
2022/03/12 06:57:19;;;;;;;15.07;10.67;;;;;;;1.25;40.53;102255.06;5005198;28;20232;-55
2022/03/12 06:59:45;;;;;;;14.40;9.97;;;;;;;1.39;39.97;102256.81;5002992;28;20286;-54
2022/03/12 07:02:11;;;;;;;18.00;10.83;;;;;;;1.67;39.93;102254.19;5017173;28;20265;-55
2022/03/12 07:04:38;;;;;;;17.70;10.27;;;;;;;1.72;39.69;102256.13;5004473;28;20793;-54
2022/03/12 07:07:05;;;;;;;15.80;11.27;;;;;;;1.79;38.93;102251.44;5001347;28;20635;-55
2022/03/12 07:09:31;;;;;;;17.77;10.70;;;;;;;1.62;38.97;102259.91;5003937;28;20670;-55
2022/03/12 07:11:58;;;;;;;18.53;10.33;;;;;;;1.78;40.05;102256.50;5003372;28;20236;-54
2022/03/12 07:14:26;;;;;;;14.13;10.23;;;;;;;1.94;40.41;102248.84;5004462;28;20298;-53
2022/03/12 07:16:52;;;;;;;17.90;10.87;;;;;;;1.83;39.42;102255.09;5003056;28;21013;-55
2022/03/12 07:19:19;;;;;;;16.23;9.70;;;;;;;1.66;39.22;102256.69;5004380;28;20345;-54
2022/03/12 07:21:45;;;;;;;18.43;10.70;;;;;;;2.24;38.95;102259.19;4996725;28;20256;-54
2022/03/12 07:24:12;;;;;;;15.57;9.57;;;;;;;2.23;38.52;102258.28;5000890;28;20885;-54
2022/03/12 07:26:39;;;;;;;15.00;10.23;;;;;;;2.51;40.23;102257.28;5004494;28;20240;-54
2022/03/12 07:29:05;;;;;;;14.67;10.37;;;;;;;2.60;38.69;102261.28;5002761;28;20235;-55
2022/03/12 07:31:33;;;;;;;15.33;9.23;;;;;;;2.57;37.97;102258.50;5002895;28;20290;-55
2022/03/12 07:33:59;;;;;;;17.40;10.53;;;;;;;2.53;37.20;102264.34;5004360;28;20238;-54
2022/03/12 07:36:25;;;;;;;13.37;9.67;;;;;;;2.50;37.17;102263.28;5007863;28;20239;-55
2022/03/12 07:38:51;;;;;;;19.10;11.63;;;;;;;2.54;37.95;102266.13;5009599;28;20236;-55
2022/03/12 07:41:18;;;;;;;16.97;9.60;;;;;;;2.38;37.42;102266.94;5010120;28;20244;-55
2022/03/12 07:43:44;;;;;;;14.50;9.50;;;;;;;2.72;38.92;102266.25;5010352;28;20233;-53
2022/03/12 07:46:10;;;;;;;23.83;9.93;;;;;;;2.82;39.07;102262.47;5003432;28;20329;-54
2022/03/12 07:48:38;;;;;;;14.60;9.57;;;;;;;3.02;38.86;102263.53;5004067;28;20263;-54
2022/03/12 07:51:06;;;;;;;14.50;9.63;;;;;;;3.14;36.06;102264.22;5002021;28;20326;-53
2022/03/12 07:53:32;;;;;;;13.77;9.00;;;;;;;2.94;35.58;102257.03;5004133;28;20239;-54
2022/03/12 07:55:59;;;;;;;14.13;9.30;;;;;;;3.08;36.49;102256.09;5004545;28;20236;-53
2022/03/12 07:58:28;;;;;;;13.37;8.97;;;;;;;3.37;35.93;102261.94;5003205;28;20243;-53
2022/03/12 08:00:55;;;;;;;20.37;10.43;;;;;;;3.40;35.44;102259.50;5004718;28;20237;-53
2022/03/12 08:03:23;;;;;;;11.17;8.80;;;;;;;3.47;34.84;102256.41;5004033;28;20306;-54
2022/03/12 08:05:51;;;;;;;15.57;8.83;;;;;;;3.51;33.72;102258.34;4999896;28;20232;-54
2022/03/12 08:08:17;;;;;;;13.50;9.67;;;;;;;3.68;35.23;102252.34;5006382;28;20609;-54
2022/03/12 08:13:29;;;;;;;16.67;9.37;;;;;;;3.96;34.52;102265.03;5004204;28;20242;-54
2022/03/12 08:15:55;;;;;;;9.67;8.67;;;;;;;4.12;33.05;102274.50;5008417;28;20270;-53
2022/03/12 08:18:22;;;;;;;14.20;9.03;;;;;;;4.09;33.61;102261.34;5008308;28;20233;-54
2022/03/12 08:20:49;;;;;;;13.90;8.40;;;;;;;4.25;34.00;102266.50;5007198;28;20793;-56
2022/03/12 08:23:16;;;;;;;12.73;8.97;;;;;;;4.57;33.93;102264.56;5005314;28;20295;-53
2022/03/12 08:25:43;;;;;;;12.27;9.10;;;;;;;4.70;31.02;102259.13;5006917;28;20240;-53
2022/03/12 08:28:10;;;;;;;14.03;8.53;;;;;;;4.74;30.85;102266.25;5007028;28;20642;-54
2022/03/12 08:30:36;;;;;;;13.00;7.63;;;;;;;4.72;30.27;102265.28;5008407;28;20311;-54
2022/03/12 08:33:03;;;;;;;16.80;8.43;;;;;;;4.84;30.81;102264.06;5007408;28;20287;-54
2022/03/12 08:35:29;;;;;;;14.60;8.37;;;;;;;4.74;30.75;102261.06;5007727;28;20327;-54
2022/03/12 08:37:56;;;;;;;11.47;7.90;;;;;;;4.89;30.12;102270.41;5006986;28;20718;-54
2022/03/12 08:40:25;;;;;;;15.03;7.33;;;;;;;4.89;30.36;102265.19;5006774;28;20294;-54
2022/03/12 08:42:52;;;;;;;13.80;7.90;;;;;;;5.19;30.78;102266.59;5003817;28;20228;-53
2022/03/12 08:45:18;;;;;;;17.37;8.53;;;;;;;5.26;30.21;102258.25;5005733;28;20263;-54
2022/03/12 08:47:45;;;;;;;8.30;6.67;;;;;;;5.33;31.58;102263.72;5006772;28;20974;-54
2022/03/12 08:50:11;;;;;;;11.90;7.50;;;;;;;5.52;31.17;102261.13;5005537;28;20236;-54
2022/03/12 08:52:38;;;;;;;12.20;7.60;;;;;;;5.44;29.22;102262.50;5004080;28;20241;-54
2022/03/12 08:55:06;;;;;;;8.80;7.63;;;;;;;5.58;29.67;102257.88;5007526;28;20239;-54
2022/03/12 08:57:34;;;;;;;11.30;7.60;;;;;;;5.58;28.43;102260.50;5007058;28;20316;-54
2022/03/12 09:00:00;;;;;;;10.80;6.30;;;;;;;5.48;28.93;102254.00;5005856;28;20312;-53
2022/03/12 09:02:28;;;;;;;9.63;6.80;;;;;;;5.51;27.81;102261.97;5001052;28;20232;-54
2022/03/12 09:04:54;;;;;;;12.83;6.90;;;;;;;5.56;28.54;102257.84;5007746;28;20251;-53
2022/03/12 09:07:21;;;;;;;9.57;7.40;;;;;;;5.90;28.31;102259.31;5005432;28;20272;-53
2022/03/12 09:09:47;;;;;;;11.87;6.80;;;;;;;5.82;26.94;102266.78;5008491;28;20233;-54
2022/03/12 09:12:14;;;;;;;12.67;6.30;;;;;;;5.89;27.15;102257.50;5006459;28;20226;-54
2022/03/12 09:14:41;;;;;;;9.13;6.07;;;;;;;6.08;26.36;102252.28;5007654;28;20253;-54
2022/03/12 09:17:08;;;;;;;10.30;6.90;;;;;;;6.03;28.22;102251.19;5005008;28;20253;-54
2022/03/12 09:19:34;;;;;;;14.00;7.10;;;;;;;6.11;27.06;102252.41;5007899;28;20722;-54
2022/03/12 09:22:02;;;;;;;10.43;6.50;;;;;;;6.36;26.71;102253.44;5008124;28;20230;-54
2022/03/12 09:24:29;;;;;;;8.53;6.17;;;;;;;6.39;26.82;102251.81;5004266;28;20251;-54
2022/03/12 09:26:55;;;;;;;9.60;6.47;;;;;;;6.37;26.61;102244.75;5006119;28;20650;-53
2022/03/12 09:29:22;;;;;;;9.23;6.93;;;;;;;6.47;26.01;102243.41;5005570;28;20677;-54
2022/03/12 09:31:50;;;;;;;10.33;6.23;;;;;;;6.60;25.40;102245.66;5005445;28;20252;-54
2022/03/12 09:34:16;;;;;;;7.27;5.90;;;;;;;6.82;25.89;102247.41;5006286;28;20776;-53
2022/03/12 09:36:42;;;;;;;10.23;7.63;;;;;;;6.85;25.02;102242.31;5002259;28;20993;-53
2022/03/12 09:39:10;;;;;;;12.30;7.33;;;;;;;6.75;26.24;102240.19;5006420;28;20237;-54
2022/03/12 09:41:38;;;;;;;8.53;5.97;;;;;;;6.84;25.28;102240.50;5010737;28;20244;-53
2022/03/12 09:44:05;;;;;;;10.10;6.97;;;;;;;7.09;25.88;102243.25;5010820;28;20229;-54
2022/03/12 09:46:31;;;;;;;10.13;6.30;;;;;;;7.33;25.68;102232.78;5011611;28;20229;-54
2022/03/12 09:48:59;;;;;;;9.67;7.23;;;;;;;7.71;25.39;102227.16;5003814;28;20321;-51
2022/03/12 09:51:28;;;;;;;12.50;7.13;;;;;;;7.39;24.73;102232.13;5005075;28;20316;-53
2022/03/12 09:53:55;;;;;;;11.57;7.03;;;;;;;7.54;25.23;102227.44;5003164;28;20233;-54
2022/03/12 09:56:21;;;;;;;9.33;6.80;;;;;;;7.49;25.37;102222.91;5005614;28;20291;-53
2022/03/12 09:58:48;;;;;;;9.07;6.23;;;;;;;7.25;25.70;102215.06;5005513;28;20313;-54
2022/03/12 10:01:14;;;;;;;9.07;6.63;;;;;;;7.44;26.95;102222.75;5003824;28;20322;-53
2022/03/12 10:03:42;;;;;;;9.33;5.70;;;;;;;7.39;24.78;102224.28;5004624;28;20237;-54
2022/03/12 10:06:10;;;;;;;8.37;6.53;;;;;;;7.55;25.62;102208.34;5001781;28;20781;-53
2022/03/12 10:08:37;;;;;;;8.90;6.00;;;;;;;7.61;25.30;102208.53;5004906;28;20272;-53
2022/03/12 10:11:04;;;;;;;11.07;7.70;;;;;;;7.65;26.13;102207.81;5004437;28;20260;-54
2022/03/12 10:13:31;;;;;;;12.23;6.90;;;;;;;7.48;26.64;102201.13;5005086;28;20321;-53
2022/03/12 10:15:58;;;;;;;8.40;6.00;;;;;;;7.56;26.01;102191.81;5001765;28;20253;-54
2022/03/12 10:18:25;;;;;;;7.13;5.77;;;;;;;7.38;26.27;102194.66;5003800;28;20311;-56
2022/03/12 10:20:51;;;;;;;8.37;6.00;;;;;;;7.44;24.63;102194.00;5003876;28;20225;-55
2022/03/12 10:23:19;;;;;;;10.83;6.20;;;;;;;7.35;24.72;102193.66;5004500;28;20858;-55
2022/03/12 10:25:46;;;;;;;15.07;6.67;;;;;;;7.34;24.84;102197.13;5006027;28;20257;-54
2022/03/12 10:28:13;;;;;;;8.67;6.10;;;;;;;7.46;24.21;102189.69;5001135;28;20249;-52
2022/03/12 10:30:39;;;;;;;8.83;6.20;;;;;;;7.63;25.85;102191.19;5003988;28;20316;-53
2022/03/12 10:33:07;;;;;;;9.80;6.00;;;;;;;7.56;24.88;102183.97;5004364;28;20280;-53
2022/03/12 10:35:35;;;;;;;8.23;6.20;;;;;;;7.69;25.36;102193.13;5004395;28;20317;-52
2022/03/12 10:38:03;;;;;;;7.73;6.63;;;;;;;7.80;24.53;102189.16;5001247;28;20239;-53
2022/03/12 10:40:31;;;;;;;9.00;6.33;;;;;;;8.05;23.55;102193.47;5004194;28;20713;-55
2022/03/12 10:42:59;;;;;;;8.77;6.30;;;;;;;7.82;24.42;102197.91;5003809;28;20225;-53
2022/03/12 10:45:27;;;;;;;10.43;6.53;;;;;;;8.07;24.08;102189.19;5003479;28;20710;-52
2022/03/12 10:47:55;;;;;;;7.87;5.77;;;;;;;7.96;23.72;102194.88;5003833;28;20253;-53
2022/03/12 10:50:25;;;;;;;8.83;4.90;;;;;;;7.92;23.90;102183.44;5003068;28;20840;-54
2022/03/12 10:52:54;;;;;;;6.80;5.93;;;;;;;8.01;23.98;102173.28;5003688;28;20728;-54
2022/03/12 10:55:25;;;;;;;9.97;6.03;;;;;;;8.03;24.13;102166.34;5003203;28;20795;-56
2022/03/12 10:58:07;;;;;;;7.27;6.20;;;;;;;8.16;25.20;102166.75;5003844;28;20749;-53
2022/03/12 11:00:37;;;;;;;8.13;4.90;;;;;;;8.31;23.93;102162.00;5001866;28;20257;-54
2022/03/12 11:03:05;;;;;;;9.10;5.40;;;;;;;8.42;22.79;102168.47;5002992;28;20449;-53
2022/03/12 11:05:35;;;;;;;9.77;5.63;;;;;;;8.43;24.48;102167.66;5003971;28;20652;-53
2022/03/12 11:08:15;;;;;;;10.00;5.67;;;;;;;8.68;24.02;102176.25;5003855;28;20257;-54
2022/03/12 11:10:51;;;;;;;5.57;4.97;;;;;;;8.70;22.27;102175.44;5002193;28;20267;-54
2022/03/12 11:13:27;;;;;;;8.47;5.17;;;;;;;8.72;22.35;102170.28;5003923;28;20232;-53
2022/03/12 11:16:12;;;;;;;6.60;5.43;;;;;;;8.87;21.24;102175.94;5003422;28;20275;-53
2022/03/12 11:18:40;;;;;;;6.87;4.87;;;;;;;8.82;21.58;102167.09;5002487;28;20239;-53
2022/03/12 11:21:06;;;;;;;6.80;5.60;;;;;;;8.84;22.32;102171.53;5006412;28;20365;-53
2022/03/12 11:23:33;;;;;;;5.90;4.60;;;;;;;9.11;22.10;102169.66;5003746;28;20351;-54
2022/03/12 11:26:06;;;;;;;6.73;4.83;;;;;;;8.83;21.72;102155.75;5002183;28;20248;-54
2022/03/12 11:28:35;;;;;;;6.63;5.20;;;;;;;9.05;22.31;102166.00;5001494;28;20225;-53